createdAt,value
2023-05-09T00:01:33.038Z,129.77
2023-05-09T00:04:01.316Z,126.57
2023-05-09T00:06:29.529Z,127.93
2023-05-09T00:08:58.006Z,128.05
2023-05-09T00:11:26.449Z,133.35
2023-05-09T00:13:54.650Z,115.47
2023-05-09T00:16:22.857Z,131.90
2023-05-09T00:18:51.331Z,133.57
2023-05-09T00:21:19.447Z,127.88
2023-05-09T00:23:48.378Z,126.18
2023-05-09T00:26:16.942Z,118.32
2023-05-09T00:28:45.404Z,132.45
2023-05-09T00:31:13.803Z,117.90
2023-05-09T00:33:42.150Z,141.60
2023-05-09T00:36:10.318Z,130.32
2023-05-09T00:38:38.810Z,128.65
2023-05-09T00:41:06.923Z,117.93
2023-05-09T00:43:35.198Z,109.07
2023-05-09T00:46:03.751Z,114.63
2023-05-09T00:48:31.973Z,120.15
2023-05-09T00:51:00.508Z,109.57
2023-05-09T00:53:28.987Z,109.38
2023-05-09T00:55:58.593Z,126.50
2023-05-09T00:58:27.010Z,121.75
2023-05-09T01:00:55.425Z,123.32
2023-05-09T01:03:23.766Z,127.95
2023-05-09T01:06:10.677Z,132.07
2023-05-09T01:08:53.793Z,142.65
2023-05-09T01:12:06.157Z,130.90
2023-05-09T01:17:09.226Z,165.10
2023-05-09T01:20:05.656Z,97.60
2023-05-09T01:22:37.199Z,72.82
2023-05-09T01:25:26.936Z,75.45
2023-05-09T01:28:12.949Z,65.32
2023-05-09T01:30:47.309Z,59.67
2023-05-09T01:33:19.870Z,48.20
2023-05-09T01:36:00.250Z,55.75
2023-05-09T01:38:31.902Z,42.15
2023-05-09T01:41:01.130Z,29.92
2023-05-09T01:43:31.570Z,29.00
2023-05-09T01:46:01.441Z,30.67
2023-05-09T01:48:32.130Z,27.02
2023-05-09T01:51:02.363Z,31.52
2023-05-09T01:53:31.929Z,26.60
2023-05-09T01:56:01.044Z,27.00
2023-05-09T01:58:32.325Z,31.15
2023-05-09T02:01:01.904Z,33.30
2023-05-09T02:03:30.755Z,28.25
2023-05-09T02:05:59.417Z,23.42
2023-05-09T02:08:27.885Z,18.08
2023-05-09T02:10:56.326Z,27.90
2023-05-09T02:13:24.965Z,24.75
2023-05-09T02:15:54.021Z,26.42
2023-05-09T02:18:22.406Z,21.13
2023-05-09T02:20:50.801Z,18.65
2023-05-09T02:23:19.528Z,20.52
2023-05-09T02:25:48.136Z,25.23
2023-05-09T02:28:19.390Z,24.75
2023-05-09T02:30:49.218Z,17.50
2023-05-09T02:33:17.781Z,17.30
2023-05-09T02:35:47.167Z,19.38
2023-05-09T02:38:16.335Z,19.77
2023-05-09T02:40:45.238Z,22.42
2023-05-09T02:43:13.565Z,20.23
2023-05-09T02:45:41.866Z,17.08
2023-05-09T02:48:10.253Z,21.77
2023-05-09T02:50:38.613Z,21.42
2023-05-09T02:53:06.932Z,33.97
2023-05-09T02:55:35.769Z,35.72
2023-05-09T02:58:13.269Z,33.28
2023-05-09T03:00:44.834Z,40.17
2023-05-09T03:03:14.972Z,28.52
2023-05-09T03:05:43.327Z,47.03
2023-05-09T03:08:11.597Z,43.80
2023-05-09T03:10:39.783Z,24.15
2023-05-09T03:13:09.656Z,41.75
2023-05-09T03:15:37.995Z,58.10
2023-05-09T03:18:07.305Z,43.15
2023-05-09T03:20:35.558Z,28.55
2023-05-09T03:23:04.787Z,32.90
2023-05-09T03:25:35.604Z,31.10
2023-05-09T03:28:04.145Z,37.50
2023-05-09T03:30:32.266Z,27.10
2023-05-09T03:33:01.619Z,21.85
2023-05-09T03:35:29.995Z,40.67
2023-05-09T03:37:58.283Z,46.00
2023-05-09T03:40:26.639Z,27.75
2023-05-09T03:43:05.892Z,33.03
2023-05-09T03:45:34.692Z,21.50
2023-05-09T03:48:03.057Z,29.00
2023-05-09T03:50:31.707Z,34.42
2023-05-09T03:53:00.452Z,32.60
2023-05-09T03:55:29.071Z,29.73
2023-05-09T03:57:57.521Z,29.73
2023-05-09T04:00:26.167Z,38.08
2023-05-09T04:03:03.762Z,37.83
2023-05-09T04:05:38.186Z,36.42
2023-05-09T04:08:09.270Z,41.65
2023-05-09T04:10:37.921Z,41.78
2023-05-09T04:13:06.090Z,35.97
2023-05-09T04:15:34.519Z,41.20
2023-05-09T04:18:03.395Z,31.10
2023-05-09T04:20:33.274Z,34.83
2023-05-09T04:23:02.064Z,39.45
2023-05-09T04:25:31.154Z,45.90
2023-05-09T04:27:59.884Z,36.05
2023-05-09T04:30:29.020Z,37.70
2023-05-09T04:32:58.254Z,34.72
2023-05-09T04:35:28.850Z,34.33
2023-05-09T04:37:58.238Z,42.38
2023-05-09T04:40:27.190Z,40.35
2023-05-09T04:43:01.399Z,35.00
2023-05-09T04:45:31.633Z,43.85
2023-05-09T04:48:01.293Z,36.78
2023-05-09T04:50:30.619Z,34.53
2023-05-09T04:52:58.659Z,30.25
2023-05-09T04:55:26.945Z,29.90
2023-05-09T05:00:18.304Z,24.05
2023-05-09T05:02:48.863Z,25.75
2023-05-09T05:05:17.182Z,28.85
2023-05-09T05:07:45.435Z,39.78
2023-05-09T05:10:19.955Z,39.33
2023-05-09T05:12:53.195Z,36.20
2023-05-09T05:15:21.743Z,31.52
2023-05-09T05:17:50.000Z,37.58
2023-05-09T05:20:21.835Z,37.72
2023-05-09T05:22:50.861Z,39.20
2023-05-09T05:25:19.351Z,34.20
2023-05-09T05:27:50.829Z,33.33
2023-05-09T05:30:19.181Z,39.42
2023-05-09T05:32:47.495Z,40.92
2023-05-09T05:35:18.839Z,38.43
2023-05-09T05:37:49.023Z,26.80
2023-05-09T05:40:21.258Z,30.23
2023-05-09T05:42:51.239Z,32.08
2023-05-09T05:45:20.829Z,27.90
2023-05-09T05:47:52.392Z,28.25
2023-05-09T05:50:21.500Z,29.63
2023-05-09T05:52:49.853Z,24.27
2023-05-09T05:55:19.971Z,33.63
2023-05-09T05:57:48.420Z,32.92
2023-05-09T06:00:17.754Z,28.63
2023-05-09T06:02:50.686Z,36.75
2023-05-09T06:05:27.377Z,24.42
2023-05-09T06:07:55.809Z,29.65
2023-05-09T06:10:23.953Z,28.25
2023-05-09T06:12:52.377Z,40.00
2023-05-09T06:15:20.790Z,26.05
2023-05-09T06:17:51.190Z,32.03
2023-05-09T06:20:19.646Z,19.63
2023-05-09T06:22:47.988Z,23.20
2023-05-09T06:25:16.312Z,20.95
2023-05-09T06:27:44.903Z,30.75
2023-05-09T06:30:24.569Z,28.98
2023-05-09T06:32:57.677Z,29.10
2023-05-09T06:35:25.855Z,32.83
2023-05-09T06:37:54.027Z,32.83
2023-05-09T06:40:22.315Z,27.90
2023-05-09T06:42:50.623Z,27.83
2023-05-09T06:45:19.276Z,28.10
2023-05-09T06:47:47.727Z,26.35
2023-05-09T06:50:15.949Z,24.48
2023-05-09T06:52:44.205Z,20.42
2023-05-09T06:55:12.563Z,21.08
2023-05-09T06:57:41.128Z,24.15
2023-05-09T07:00:09.792Z,29.35
2023-05-09T07:02:38.223Z,17.92
2023-05-09T07:05:06.823Z,27.08
2023-05-09T07:07:35.259Z,28.42
2023-05-09T07:10:11.419Z,32.90
2023-05-09T07:12:41.157Z,31.35
2023-05-09T07:15:10.006Z,32.10
2023-05-09T07:17:38.706Z,31.40
2023-05-09T07:20:08.796Z,30.38
2023-05-09T07:22:40.362Z,29.27
2023-05-09T07:25:09.785Z,37.60
2023-05-09T07:27:38.634Z,30.80
2023-05-09T07:30:07.640Z,30.70
2023-05-09T07:32:36.711Z,34.25
2023-05-09T07:35:06.581Z,33.88
2023-05-09T07:37:35.144Z,25.02
2023-05-09T07:40:03.902Z,32.10
2023-05-09T07:42:34.798Z,34.08
2023-05-09T07:45:03.179Z,29.98
2023-05-09T07:47:31.387Z,32.17
2023-05-09T07:49:59.721Z,35.85
2023-05-09T07:52:27.994Z,41.20
2023-05-09T07:54:56.312Z,40.03
2023-05-09T07:57:24.810Z,36.10
2023-05-09T15:45:26.321Z,37.40
2023-05-09T15:47:54.633Z,33.70
2023-05-09T15:50:23.082Z,26.05
2023-05-09T15:52:51.347Z,66.18
2023-05-09T15:55:21.108Z,61.65
2023-05-09T15:57:49.566Z,22.58
2023-05-09T16:00:18.060Z,25.98
2023-05-09T16:02:46.613Z,31.13
2023-05-09T16:05:14.979Z,16.30
2023-05-09T16:07:47.670Z,58.70
2023-05-09T16:10:16.441Z,23.73
2023-05-09T16:12:44.941Z,20.45
2023-05-09T16:15:13.157Z,17.65
2023-05-09T16:17:41.393Z,21.52
2023-05-09T16:20:10.235Z,22.42
2023-05-09T16:22:39.795Z,24.40
2023-05-09T16:25:08.890Z,17.02
2023-05-09T16:27:37.042Z,21.98
2023-05-09T16:30:06.928Z,27.20
2023-05-09T16:32:38.150Z,39.33
2023-05-09T16:35:07.274Z,37.42
2023-05-09T16:37:35.817Z,36.58
2023-05-09T16:40:04.483Z,22.73
2023-05-09T16:46:30.617Z,38.20
2023-05-09T16:48:58.800Z,30.52
2023-05-09T16:51:27.328Z,16.58
2023-05-09T16:53:55.419Z,24.63
2023-05-09T16:56:23.624Z,19.15
2023-05-09T16:58:51.930Z,17.00
2023-05-09T17:01:20.202Z,17.48
2023-05-09T17:03:48.731Z,15.75
2023-05-09T17:06:16.815Z,21.27
2023-05-09T17:08:45.831Z,17.02
2023-05-09T17:11:14.009Z,24.77
2023-05-09T17:13:42.310Z,38.17
2023-05-09T17:16:10.990Z,50.33
2023-05-09T17:18:39.570Z,21.52
2023-05-09T17:21:07.767Z,29.13
2023-05-09T17:23:36.177Z,22.48
2023-05-09T17:26:04.990Z,21.02
2023-05-09T17:28:33.392Z,24.27
2023-05-09T17:31:01.642Z,33.03
2023-05-09T17:33:30.392Z,23.25
2023-05-09T17:35:59.652Z,53.67
2023-05-09T17:38:27.860Z,28.45
2023-05-09T17:40:56.805Z,13.32
2023-05-09T17:43:25.106Z,35.00
2023-05-09T17:45:53.332Z,41.15
2023-05-09T17:48:22.038Z,42.80
2023-05-09T17:50:50.272Z,28.98
2023-05-09T17:53:18.920Z,27.10
2023-05-09T17:55:46.989Z,23.20
2023-05-09T17:58:46.020Z,53.40
2023-05-09T18:01:14.271Z,45.03
2023-05-09T18:03:42.477Z,34.80
2023-05-09T18:06:10.885Z,40.10
2023-05-09T18:08:39.143Z,36.97
2023-05-09T18:11:07.326Z,55.00
2023-05-09T18:13:35.760Z,34.47
2023-05-09T18:16:04.159Z,53.97
2023-05-09T18:18:32.281Z,50.97
2023-05-09T18:21:00.634Z,89.50
2023-05-09T18:23:28.794Z,117.35
2023-05-09T18:25:57.012Z,86.30
2023-05-09T18:28:26.595Z,34.83
2023-05-09T18:30:57.386Z,38.88
2023-05-09T18:33:28.154Z,29.20
2023-05-09T18:35:56.669Z,42.47
2023-05-09T18:38:24.721Z,30.33
2023-05-09T18:40:53.104Z,33.08
2023-05-09T18:43:21.200Z,54.30
2023-05-09T18:45:49.381Z,46.55
2023-05-09T18:48:17.714Z,52.80
2023-05-09T18:50:45.781Z,42.53
2023-05-09T18:53:14.127Z,38.30
2023-05-09T18:55:42.413Z,33.55
2023-05-09T18:58:10.608Z,25.88
2023-05-09T19:00:39.116Z,25.88
2023-05-09T19:03:07.473Z,32.80
2023-05-09T19:05:36.061Z,48.15
2023-05-09T19:08:04.493Z,33.05
2023-05-09T19:10:32.874Z,38.90
2023-05-09T19:13:01.207Z,31.60
2023-05-09T19:15:29.462Z,36.47
2023-05-09T19:17:57.935Z,43.30
2023-05-09T19:20:26.296Z,30.50
2023-05-09T19:22:54.386Z,25.02
2023-05-09T19:25:23.090Z,24.88
2023-05-09T19:27:51.334Z,21.52
2023-05-09T19:30:20.657Z,24.58
2023-05-09T19:32:48.948Z,31.27
2023-05-09T19:35:17.173Z,27.02
2023-05-09T19:37:45.403Z,35.75
2023-05-09T19:40:13.836Z,29.27
2023-05-09T19:42:42.497Z,26.27
2023-05-09T19:45:11.237Z,29.15
2023-05-09T19:47:39.589Z,29.98
2023-05-09T19:50:08.720Z,43.20
2023-05-09T19:52:36.884Z,34.22
2023-05-09T19:55:05.828Z,21.10
2023-05-09T19:57:35.479Z,31.25
2023-05-09T20:00:04.445Z,28.27
2023-05-09T20:02:34.652Z,27.25
2023-05-09T20:05:03.135Z,19.10
2023-05-09T20:07:31.547Z,24.35
2023-05-09T20:09:59.851Z,17.52
2023-05-09T20:12:30.049Z,29.45
2023-05-09T20:15:00.190Z,36.05
2023-05-09T20:17:28.581Z,38.35
2023-05-09T20:19:56.872Z,34.60
2023-05-09T20:22:25.156Z,52.95
2023-05-09T20:24:53.527Z,46.67
2023-05-09T20:27:22.080Z,105.07
2023-05-09T20:29:50.427Z,35.45
2023-05-09T20:32:18.904Z,66.28
2023-05-09T20:34:47.174Z,46.83
2023-05-09T20:37:15.518Z,94.63
2023-05-09T20:39:44.377Z,49.15
2023-05-09T20:42:12.747Z,40.17
2023-05-09T20:44:41.132Z,78.95
2023-05-09T20:47:09.502Z,89.95
2023-05-09T20:49:37.800Z,56.72
2023-05-09T20:52:06.308Z,44.13
2023-05-09T20:54:34.479Z,46.08
2023-05-09T20:57:02.762Z,38.58
2023-05-09T20:59:31.538Z,42.35
2023-05-09T21:01:59.709Z,36.95
2023-05-09T21:04:27.947Z,45.53
2023-05-09T21:06:56.405Z,47.42
2023-05-09T21:09:24.535Z,52.92
2023-05-09T21:11:52.790Z,59.58
2023-05-09T21:14:21.565Z,47.47
2023-05-09T21:16:49.878Z,37.22
2023-05-09T21:19:18.353Z,41.40
2023-05-09T21:21:48.002Z,44.10
2023-05-09T21:24:17.045Z,32.60
2023-05-09T21:26:45.125Z,28.75
2023-05-09T21:29:13.771Z,25.73
2023-05-09T21:31:42.045Z,30.60
2023-05-09T21:34:10.496Z,21.38
2023-05-09T21:36:40.728Z,23.70
2023-05-09T21:39:09.568Z,37.28
2023-05-09T21:41:39.267Z,19.92
2023-05-09T21:44:08.257Z,29.90
2023-05-09T21:46:36.712Z,44.60
2023-05-09T21:49:05.622Z,92.30
2023-05-09T21:51:34.999Z,51.03
2023-05-09T21:54:03.299Z,56.17
2023-05-09T21:56:31.659Z,97.15
2023-05-09T21:58:59.975Z,183.15
2023-05-09T22:01:28.163Z,97.45
2023-05-09T22:03:56.591Z,66.68
2023-05-09T22:06:24.701Z,57.00
2023-05-09T22:08:53.031Z,65.85
2023-05-09T22:11:21.918Z,31.75
2023-05-09T22:13:50.342Z,50.95
2023-05-09T22:16:18.532Z,23.95
2023-05-09T22:18:46.873Z,39.25
2023-05-09T22:21:15.013Z,24.30
2023-05-09T22:23:43.865Z,26.58
2023-05-09T22:26:12.249Z,40.28
2023-05-09T22:28:40.654Z,40.28
2023-05-09T22:31:08.828Z,15.32
2023-05-09T22:33:37.432Z,24.48
2023-05-09T22:36:06.048Z,19.55
2023-05-09T22:38:34.483Z,14.10
2023-05-09T22:41:02.722Z,11.45
2023-05-09T22:43:38.868Z,14.77
2023-05-09T22:46:08.384Z,20.73
2023-05-09T22:48:36.566Z,35.70
2023-05-09T22:51:04.884Z,45.75
2023-05-09T22:53:33.309Z,51.28
2023-05-09T22:56:01.844Z,54.60
2023-05-09T22:58:29.954Z,40.08
2023-05-09T23:00:58.545Z,17.52
2023-05-09T23:03:27.514Z,18.75
2023-05-09T23:05:56.026Z,8.82
2023-05-09T23:08:24.239Z,14.48
2023-05-09T23:10:52.845Z,11.02
2023-05-09T23:13:21.345Z,12.85
2023-05-09T23:15:49.803Z,21.33
2023-05-09T23:18:18.150Z,17.65
2023-05-09T23:20:46.466Z,38.67
2023-05-09T23:23:15.416Z,31.02
2023-05-09T23:25:43.879Z,39.22
2023-05-09T23:28:11.973Z,26.27
2023-05-09T23:30:40.162Z,24.70
2023-05-09T23:33:08.482Z,34.90
2023-05-09T23:35:36.574Z,29.70
2023-05-09T23:38:04.868Z,25.38
2023-05-09T23:40:33.139Z,23.13
2023-05-09T23:43:01.679Z,18.40
2023-05-09T23:45:29.731Z,25.35
2023-05-09T23:47:58.024Z,17.52
2023-05-09T23:50:26.444Z,24.67
2023-05-09T23:52:54.616Z,23.05
2023-05-09T23:55:22.775Z,16.52
2023-05-09T23:57:51.018Z,14.88
